createdAt,value
2018-05-15T00:00:34.100Z,0.00
2018-05-15T00:01:34.128Z,0.00
2018-05-15T00:02:34.163Z,0.00
2018-05-15T00:03:34.199Z,0.00
2018-05-15T00:04:34.236Z,0.00
2018-05-15T00:05:34.274Z,0.00
2018-05-15T00:06:34.307Z,0.00
2018-05-15T00:07:34.343Z,0.00
2018-05-15T00:08:34.381Z,0.00
2018-05-15T00:09:34.411Z,0.00
2018-05-15T00:10:34.446Z,0.00
2018-05-15T00:11:34.484Z,0.00
2018-05-15T00:12:34.518Z,0.00
2018-05-15T00:13:34.554Z,0.00
2018-05-15T00:14:34.590Z,0.00
2018-05-15T00:15:34.625Z,0.00
2018-05-15T00:16:34.659Z,0.00
2018-05-15T00:17:34.697Z,0.00
2018-05-15T00:18:34.732Z,0.00
2018-05-15T00:19:34.767Z,0.00
2018-05-15T00:20:34.804Z,0.00
2018-05-15T00:21:34.838Z,0.00
2018-05-15T00:22:34.871Z,0.00
2018-05-15T00:23:34.909Z,0.00
2018-05-15T00:24:34.946Z,0.00
2018-05-15T00:25:34.985Z,0.00
2018-05-15T00:26:35.016Z,0.00
2018-05-15T00:27:35.052Z,0.00
2018-05-15T00:28:35.086Z,0.00
2018-05-15T00:29:35.122Z,0.00
2018-05-15T00:30:35.157Z,0.00
2018-05-15T00:31:35.196Z,0.00
2018-05-15T00:32:35.235Z,0.00
2018-05-15T00:33:35.262Z,0.00
2018-05-15T00:34:35.301Z,0.00
2018-05-15T00:35:35.334Z,0.00
2018-05-15T00:36:35.369Z,0.00
2018-05-15T00:37:35.404Z,0.00
2018-05-15T00:38:35.441Z,0.00
2018-05-15T00:39:35.474Z,0.00
2018-05-15T00:40:35.507Z,0.00
2018-05-15T00:41:35.543Z,0.00
2018-05-15T00:42:35.581Z,0.00
2018-05-15T00:43:35.616Z,0.00
2018-05-15T00:44:35.659Z,0.00
2018-05-15T00:45:35.685Z,0.00
2018-05-15T00:46:35.728Z,0.00
2018-05-15T00:47:35.757Z,0.00
2018-05-15T00:48:35.792Z,0.00
2018-05-15T00:49:35.824Z,0.00
2018-05-15T00:50:35.863Z,0.00
2018-05-15T00:51:35.895Z,0.00
2018-05-15T00:52:35.939Z,0.00
2018-05-15T00:53:35.966Z,0.00
2018-05-15T00:54:36.000Z,0.00
2018-05-15T00:55:36.038Z,0.00
2018-05-15T00:56:36.070Z,0.00
2018-05-15T00:57:36.106Z,0.00
2018-05-15T00:58:36.142Z,0.00
2018-05-15T00:59:36.174Z,0.00
2018-05-15T01:00:36.211Z,0.00
2018-05-15T01:01:36.248Z,0.00
2018-05-15T01:02:36.280Z,0.00
2018-05-15T01:03:36.317Z,0.00
2018-05-15T01:04:36.351Z,0.00
2018-05-15T01:05:36.387Z,0.00
2018-05-15T01:06:36.435Z,0.00
2018-05-15T01:07:36.460Z,0.00
2018-05-15T01:08:36.491Z,0.00
2018-05-15T01:09:36.525Z,0.00
2018-05-15T01:10:36.568Z,0.00
2018-05-15T01:11:36.595Z,0.00
2018-05-15T01:12:36.632Z,0.00
2018-05-15T01:13:36.665Z,0.00
2018-05-15T01:14:36.701Z,0.00
2018-05-15T01:15:36.736Z,0.00
2018-05-15T01:16:36.770Z,0.00
2018-05-15T01:17:36.807Z,0.00
2018-05-15T01:18:36.838Z,0.00
2018-05-15T01:19:36.874Z,0.00
2018-05-15T01:20:36.909Z,0.00
2018-05-15T01:21:36.948Z,0.00
2018-05-15T01:22:36.980Z,0.00
2018-05-15T01:23:37.016Z,0.00
2018-05-15T01:24:37.049Z,0.00
2018-05-15T01:25:37.085Z,0.00
2018-05-15T01:26:37.130Z,0.00
2018-05-15T01:27:37.158Z,0.00
2018-05-15T01:28:37.187Z,0.00
2018-05-15T01:29:37.225Z,0.00
2018-05-15T01:30:37.259Z,0.00
2018-05-15T01:31:37.295Z,0.00
2018-05-15T01:32:37.328Z,0.00
2018-05-15T01:33:37.364Z,0.00
2018-05-15T01:34:37.403Z,0.00
2018-05-15T01:35:37.433Z,0.00
2018-05-15T01:36:37.470Z,0.00
2018-05-15T01:37:37.507Z,0.00
2018-05-15T01:38:37.539Z,0.00
2018-05-15T01:39:37.581Z,0.00
2018-05-15T01:40:37.611Z,0.00
2018-05-15T01:41:37.643Z,0.00
2018-05-15T01:42:37.682Z,0.00
2018-05-15T01:43:37.713Z,0.00
2018-05-15T01:44:37.747Z,0.00
2018-05-15T01:45:37.781Z,0.00
2018-05-15T01:46:37.816Z,0.00
2018-05-15T01:47:37.852Z,0.00
2018-05-15T01:48:37.886Z,0.00
2018-05-15T01:49:37.929Z,0.00
2018-05-15T01:50:37.956Z,0.00
2018-05-15T01:51:37.991Z,0.00
2018-05-15T01:52:38.027Z,0.00
2018-05-15T01:53:38.061Z,0.00
2018-05-15T01:54:38.095Z,0.00
2018-05-15T01:55:38.129Z,0.00
2018-05-15T01:56:38.172Z,0.00
2018-05-15T01:57:38.200Z,0.00
2018-05-15T01:58:38.233Z,0.00
2018-05-15T01:59:38.271Z,0.00
2018-05-15T02:00:38.303Z,0.00
2018-05-15T02:01:38.342Z,0.00
2018-05-15T02:02:38.374Z,0.00
2018-05-15T02:03:38.409Z,0.00
2018-05-15T02:04:38.442Z,0.00
2018-05-15T02:05:38.483Z,0.00
2018-05-15T02:06:38.515Z,0.00
2018-05-15T02:07:38.550Z,0.00
2018-05-15T02:08:38.591Z,0.00
2018-05-15T02:09:38.617Z,0.00
2018-05-15T02:10:38.660Z,0.00
2018-05-15T02:11:38.687Z,0.00
2018-05-15T02:12:38.722Z,0.00
2018-05-15T02:13:38.756Z,0.00
2018-05-15T02:14:38.800Z,0.00
2018-05-15T02:15:38.826Z,0.00
2018-05-15T02:16:38.861Z,0.00
2018-05-15T02:17:38.897Z,0.00
2018-05-15T02:18:38.930Z,0.00
2018-05-15T02:19:38.963Z,0.00
2018-05-15T02:20:38.998Z,0.00
2018-05-15T02:21:39.033Z,0.00
2018-05-15T02:22:39.067Z,0.00
2018-05-15T02:23:39.104Z,0.00
2018-05-15T02:24:39.136Z,0.00
2018-05-15T02:25:39.171Z,0.00
2018-05-15T02:26:39.205Z,0.00
2018-05-15T02:27:39.245Z,0.00
2018-05-15T02:28:39.282Z,0.00
2018-05-15T02:29:39.311Z,0.00
2018-05-15T02:30:39.345Z,0.00
2018-05-15T02:31:39.377Z,0.00
2018-05-15T02:32:39.415Z,0.00
2018-05-15T02:33:39.447Z,0.00
2018-05-15T02:34:39.483Z,0.00
2018-05-15T02:35:39.517Z,0.00
2018-05-15T02:36:39.551Z,0.00
2018-05-15T02:37:39.584Z,0.00
2018-05-15T02:38:39.622Z,0.00
2018-05-15T02:39:39.655Z,0.00
2018-05-15T02:40:39.690Z,0.00
2018-05-15T02:41:39.725Z,0.00
2018-05-15T02:42:39.757Z,0.00
2018-05-15T02:43:39.822Z,0.00
2018-05-15T02:44:39.828Z,0.00
2018-05-15T02:45:39.978Z,0.00
2018-05-15T02:46:39.898Z,0.00
2018-05-15T02:47:40.144Z,0.00
2018-05-15T02:48:39.963Z,0.00
2018-05-15T02:49:40.001Z,0.00
2018-05-15T02:50:40.043Z,4.00
2018-05-15T02:51:40.071Z,4.00
2018-05-15T02:52:40.102Z,4.00
2018-05-15T02:53:40.142Z,0.00
2018-05-15T02:54:40.174Z,4.00
2018-05-15T02:55:40.209Z,4.00
2018-05-15T02:56:40.240Z,4.00
2018-05-15T02:57:40.279Z,4.00
2018-05-15T02:58:40.310Z,8.00
2018-05-15T02:59:40.344Z,4.00
2018-05-15T03:00:40.378Z,8.00
2018-05-15T03:01:40.418Z,8.00
2018-05-15T03:02:40.454Z,8.00
2018-05-15T03:03:40.482Z,12.00
2018-05-15T03:04:40.516Z,12.00
2018-05-15T03:05:40.549Z,16.00
2018-05-15T03:06:40.584Z,20.00
2018-05-15T03:07:40.625Z,20.00
2018-05-15T03:08:40.652Z,24.00
2018-05-15T03:09:40.687Z,28.00
2018-05-15T03:10:40.722Z,32.00
2018-05-15T03:11:40.852Z,36.00
2018-05-15T03:12:40.792Z,44.00
2018-05-15T03:13:40.832Z,48.00
2018-05-15T03:14:40.860Z,52.00
2018-05-15T03:15:40.893Z,60.00
2018-05-15T03:16:40.929Z,68.00
2018-05-15T03:17:40.962Z,76.00
2018-05-15T03:18:40.995Z,84.00
2018-05-15T03:19:41.030Z,96.00
2018-05-15T03:20:41.065Z,104.00
2018-05-15T03:21:41.101Z,120.00
2018-05-15T03:22:41.134Z,132.00
2018-05-15T03:23:41.169Z,144.00
2018-05-15T03:24:41.201Z,156.00
2018-05-15T03:25:41.236Z,172.00
2018-05-15T03:26:41.271Z,184.00
2018-05-15T03:27:41.303Z,200.00
2018-05-15T03:28:41.344Z,220.00
2018-05-15T03:29:41.372Z,236.00
2018-05-15T03:30:41.406Z,252.00
2018-05-15T03:31:41.467Z,272.00
2018-05-15T03:32:41.475Z,288.00
2018-05-15T03:33:41.515Z,308.00
2018-05-15T03:34:41.543Z,324.00
2018-05-15T03:35:41.578Z,344.00
2018-05-15T03:36:41.611Z,364.00
2018-05-15T03:37:41.646Z,384.00
2018-05-15T03:38:41.681Z,408.00
2018-05-15T03:39:41.715Z,428.00
2018-05-15T03:40:41.748Z,456.00
2018-05-15T03:41:41.785Z,480.00
2018-05-15T03:42:41.817Z,512.00
2018-05-15T03:43:41.856Z,544.00
2018-05-15T03:44:41.885Z,588.00
2018-05-15T03:45:41.919Z,632.00
2018-05-15T03:46:41.952Z,680.00
2018-05-15T03:47:41.989Z,728.00
2018-05-15T03:48:42.021Z,772.00
2018-05-15T03:49:42.066Z,812.00
2018-05-15T03:50:42.092Z,848.00
2018-05-15T03:51:42.131Z,892.00
2018-05-15T03:52:42.158Z,928.00
2018-05-15T03:53:42.193Z,956.00
2018-05-15T03:54:42.228Z,1012.00
2018-05-15T03:55:42.261Z,1064.00
2018-05-15T03:56:42.299Z,1116.00
2018-05-15T03:57:42.334Z,1168.00
2018-05-15T03:58:42.372Z,1220.00
2018-05-15T03:59:42.399Z,1268.00
2018-05-15T04:00:42.433Z,1312.00
2018-05-15T04:01:42.468Z,1356.00
2018-05-15T04:02:42.501Z,1412.00
2018-05-15T04:03:42.543Z,1484.00
2018-05-15T04:04:42.578Z,1564.00
2018-05-15T04:05:42.603Z,1664.00
2018-05-15T04:06:42.641Z,1756.00
2018-05-15T04:07:42.675Z,1852.00
2018-05-15T04:08:42.711Z,1960.00
2018-05-15T04:09:42.743Z,2084.00
2018-05-15T04:10:42.823Z,2204.00
2018-05-15T04:11:42.809Z,2296.00
2018-05-15T04:12:42.843Z,2336.00
2018-05-15T04:13:42.877Z,2336.00
2018-05-15T04:14:42.913Z,2340.00
2018-05-15T04:15:42.953Z,2352.00
2018-05-15T04:16:42.985Z,2356.00
2018-05-15T04:17:43.016Z,2396.00
2018-05-15T04:18:43.052Z,2416.00
2018-05-15T04:19:43.085Z,2400.00
2018-05-15T04:20:43.128Z,2352.00
2018-05-15T04:21:43.154Z,2288.00
2018-05-15T04:22:43.190Z,2240.00
2018-05-15T04:23:43.224Z,2212.00
2018-05-15T04:24:43.258Z,2228.00
2018-05-15T04:25:43.299Z,2280.00
2018-05-15T04:26:43.327Z,2340.00
2018-05-15T04:27:43.364Z,2416.00
2018-05-15T04:28:43.396Z,2500.00
2018-05-15T04:29:43.429Z,2592.00
2018-05-15T04:30:43.465Z,2704.00
2018-05-15T04:31:43.504Z,2844.00
2018-05-15T04:32:43.535Z,3004.00
2018-05-15T04:33:43.572Z,3156.00
2018-05-15T04:34:43.605Z,3304.00
2018-05-15T04:35:43.639Z,3400.00
2018-05-15T04:36:43.677Z,3412.00
2018-05-15T04:37:43.715Z,3412.00
2018-05-15T04:38:43.742Z,3372.00
2018-05-15T04:39:43.778Z,3368.00
2018-05-15T04:40:43.816Z,3404.00
2018-05-15T04:41:43.848Z,3452.00
2018-05-15T04:42:43.881Z,3472.00
2018-05-15T04:43:44.054Z,3456.00
2018-05-15T04:44:43.950Z,3420.00
2018-05-15T04:45:43.985Z,3404.00
2018-05-15T04:46:44.023Z,3364.00
2018-05-15T04:47:44.056Z,3356.00
2018-05-15T04:48:44.090Z,3388.00
2018-05-15T04:49:44.124Z,3456.00
2018-05-15T04:50:44.173Z,3528.00
2018-05-15T04:51:44.194Z,3588.00
2018-05-15T04:52:44.228Z,3628.00
2018-05-15T04:53:44.275Z,3644.00
2018-05-15T04:54:44.302Z,3668.00
2018-05-15T04:55:44.424Z,3704.00
2018-05-15T04:56:44.369Z,3724.00
2018-05-15T04:57:44.403Z,3760.00
2018-05-15T04:58:44.439Z,3836.00
2018-05-15T04:59:44.478Z,3932.00
2018-05-15T05:00:44.508Z,4072.00
2018-05-15T05:01:44.543Z,4280.00
2018-05-15T05:02:44.580Z,4536.00
2018-05-15T05:03:44.615Z,4816.00
2018-05-15T05:04:44.651Z,5076.00
2018-05-15T05:05:44.685Z,5288.00
2018-05-15T05:06:44.720Z,5448.00
2018-05-15T05:07:44.757Z,5676.00
2018-05-15T05:08:44.792Z,6056.00
2018-05-15T05:09:44.825Z,6452.00
2018-05-15T05:10:44.862Z,6868.00
2018-05-15T05:11:44.916Z,7264.00
2018-05-15T05:12:44.933Z,7628.00
2018-05-15T05:13:45.057Z,7952.00
2018-05-15T05:14:45.005Z,8228.00
2018-05-15T05:15:45.039Z,8492.00
2018-05-15T05:16:45.075Z,8708.00
2018-05-15T05:17:45.116Z,8948.00
2018-05-15T05:18:45.145Z,9168.00
2018-05-15T05:19:45.183Z,9424.00
2018-05-15T05:20:45.221Z,9676.00
2018-05-15T05:21:45.401Z,9836.00
2018-05-15T05:22:45.286Z,9992.00
2018-05-15T05:23:45.326Z,10068.00
2018-05-15T05:24:45.358Z,10148.00
2018-05-15T05:25:45.397Z,10220.00
2018-05-15T05:26:45.431Z,10252.00
2018-05-15T05:27:45.469Z,10220.00
2018-05-15T05:28:45.506Z,10156.00
2018-05-15T05:29:45.545Z,10056.00
2018-05-15T05:30:45.575Z,9940.00
2018-05-15T05:31:45.612Z,9804.00
2018-05-15T05:32:45.652Z,9716.00
2018-05-15T05:33:45.685Z,9584.00
2018-05-15T05:34:45.730Z,9444.00
2018-05-15T05:35:45.761Z,9276.00
2018-05-15T05:36:45.792Z,9088.00
2018-05-15T05:37:45.828Z,8828.00
2018-05-15T05:38:45.867Z,8508.00
2018-05-15T05:39:45.912Z,8148.00
2018-05-15T05:40:45.942Z,7776.00
2018-05-15T05:41:45.980Z,7432.00
2018-05-15T05:42:46.019Z,7120.00
2018-05-15T05:43:46.048Z,6892.00
2018-05-15T05:44:46.085Z,6740.00
2018-05-15T05:45:46.124Z,6688.00
2018-05-15T05:46:46.158Z,6668.00
2018-05-15T05:47:46.196Z,6672.00
2018-05-15T05:48:46.230Z,6620.00
2018-05-15T05:49:46.270Z,6544.00
2018-05-15T05:50:46.304Z,6524.00
2018-05-15T05:51:46.341Z,6504.00
2018-05-15T05:52:46.384Z,6456.00
2018-05-15T05:53:46.413Z,6404.00
2018-05-15T05:54:46.452Z,6380.00
2018-05-15T05:55:46.488Z,6412.00
2018-05-15T05:56:46.525Z,6432.00
2018-05-15T05:57:46.561Z,6548.00
2018-05-15T05:58:46.597Z,6704.00
2018-05-15T05:59:46.634Z,6852.00
2018-05-15T06:00:46.686Z,7032.00
2018-05-15T06:01:46.708Z,7232.00
2018-05-15T06:02:46.747Z,7412.00
2018-05-15T06:03:46.790Z,7588.00
2018-05-15T06:04:46.818Z,7776.00
2018-05-15T06:05:46.855Z,7904.00
2018-05-15T06:06:46.896Z,8004.00
2018-05-15T06:07:46.929Z,8060.00
2018-05-15T06:08:46.968Z,8112.00
2018-05-15T06:09:47.003Z,8140.00
2018-05-15T06:10:47.040Z,8140.00
2018-05-15T06:11:47.129Z,8108.00
2018-05-15T06:12:47.111Z,8052.00
2018-05-15T06:13:47.150Z,7976.00
2018-05-15T06:14:47.187Z,7900.00
2018-05-15T06:15:47.226Z,7816.00
2018-05-15T06:16:47.258Z,7744.00
2018-05-15T06:17:47.295Z,7716.00
2018-05-15T06:18:47.338Z,7756.00
2018-05-15T06:19:47.375Z,7832.00
2018-05-15T06:20:47.435Z,8012.00
2018-05-15T06:21:47.445Z,8220.00
2018-05-15T06:22:47.482Z,8452.00
2018-05-15T06:23:47.519Z,8716.00
2018-05-15T06:24:47.552Z,9000.00
2018-05-15T06:25:47.592Z,9332.00
2018-05-15T06:26:47.632Z,9568.00
2018-05-15T06:27:47.666Z,9740.00
2018-05-15T06:28:47.702Z,9880.00
2018-05-15T06:29:47.739Z,10020.00
2018-05-15T06:30:47.777Z,10176.00
2018-05-15T06:31:47.812Z,10352.00
2018-05-15T06:32:47.858Z,10436.00
2018-05-15T06:33:47.887Z,10456.00
2018-05-15T06:34:47.924Z,10472.00
2018-05-15T06:35:47.963Z,10436.00
2018-05-15T06:36:47.999Z,10336.00
2018-05-15T06:37:48.077Z,10364.00
2018-05-15T06:38:48.074Z,10080.00
2018-05-15T06:39:48.113Z,10068.00
2018-05-15T06:40:48.148Z,9908.00
2018-05-15T06:41:48.187Z,9512.00
2018-05-15T06:42:48.222Z,9292.00
2018-05-15T06:43:48.259Z,8992.00
2018-05-15T06:44:48.396Z,8616.00
2018-05-15T06:45:48.333Z,8236.00
2018-05-15T06:46:48.371Z,7888.00
2018-05-15T06:47:48.407Z,7588.00
2018-05-15T06:48:48.453Z,7288.00
2018-05-15T06:49:48.480Z,7152.00
2018-05-15T06:50:48.519Z,6936.00
2018-05-15T06:51:48.570Z,6972.00
2018-05-15T06:52:48.592Z,6896.00
2018-05-15T06:53:48.636Z,6844.00
2018-05-15T06:54:48.671Z,6808.00
2018-05-15T06:55:48.705Z,6748.00
2018-05-15T06:56:48.741Z,6716.00
2018-05-15T06:57:48.780Z,6696.00
2018-05-15T06:58:48.821Z,6700.00
2018-05-15T06:59:48.856Z,6704.00
2018-05-15T07:00:48.901Z,6716.00
2018-05-15T07:01:49.020Z,6740.00
2018-05-15T07:02:48.969Z,6772.00
2018-05-15T07:03:49.014Z,6812.00
2018-05-15T07:04:49.043Z,6888.00
2018-05-15T07:05:49.087Z,6952.00
2018-05-15T07:06:49.120Z,7004.00
2018-05-15T07:07:49.188Z,6996.00
2018-05-15T07:08:49.194Z,6932.00
2018-05-15T07:09:49.232Z,6800.00
2018-05-15T07:10:49.271Z,6604.00
2018-05-15T07:11:49.308Z,6840.00
2018-05-15T07:12:49.345Z,7032.00
2018-05-15T07:13:49.383Z,7132.00
2018-05-15T07:14:49.422Z,7212.00
2018-05-15T07:15:49.465Z,7228.00
2018-05-15T07:16:49.498Z,7240.00
2018-05-15T07:17:49.545Z,7224.00
2018-05-15T07:18:49.575Z,7216.00
2018-05-15T07:19:49.612Z,7256.00
2018-05-15T07:20:49.652Z,7280.00
2018-05-15T07:21:49.688Z,7244.00
2018-05-15T07:22:49.727Z,7204.00
2018-05-15T07:23:49.765Z,7212.00
2018-05-15T07:24:49.802Z,7072.00
2018-05-15T07:25:49.841Z,6972.00
2018-05-15T07:26:49.889Z,6864.00
2018-05-15T07:27:49.917Z,6900.00
2018-05-15T07:28:49.954Z,6796.00
2018-05-15T07:29:49.992Z,6752.00
2018-05-15T07:30:50.031Z,6700.00
2018-05-15T07:31:50.069Z,7172.00
2018-05-15T07:32:50.109Z,7412.00
2018-05-15T07:33:50.144Z,7468.00
2018-05-15T07:34:50.183Z,7528.00
2018-05-15T07:35:50.224Z,7424.00
2018-05-15T07:36:50.259Z,7684.00
2018-05-15T07:37:50.298Z,7684.00
2018-05-15T07:38:50.345Z,7752.00
2018-05-15T07:39:50.380Z,7824.00
2018-05-15T07:40:50.413Z,7864.00
2018-05-15T07:41:50.456Z,7924.00
2018-05-15T07:42:50.489Z,7960.00
2018-05-15T07:43:50.532Z,8096.00
2018-05-15T07:44:50.568Z,8232.00
2018-05-15T07:45:50.606Z,8376.00
2018-05-15T07:46:50.643Z,8500.00
2018-05-15T07:47:50.689Z,8632.00
2018-05-15T07:48:50.723Z,8744.00
2018-05-15T07:49:50.760Z,8856.00
2018-05-15T07:50:50.800Z,8948.00
2018-05-15T07:51:50.839Z,9008.00
2018-05-15T07:52:50.884Z,8980.00
2018-05-15T07:53:50.914Z,8920.00
2018-05-15T07:54:50.953Z,8632.00
2018-05-15T07:55:50.993Z,8412.00
2018-05-15T07:56:51.034Z,8412.00
2018-05-15T07:57:51.080Z,8340.00
2018-05-15T07:58:51.111Z,7896.00
2018-05-15T07:59:51.147Z,7548.00
2018-05-15T08:00:51.186Z,7596.00
2018-05-15T08:01:51.224Z,7612.00
2018-05-15T08:02:51.263Z,7608.00
2018-05-15T08:03:51.301Z,7532.00
2018-05-15T08:04:51.341Z,7592.00
2018-05-15T08:05:51.379Z,7632.00
2018-05-15T08:06:51.420Z,7680.00
2018-05-15T08:07:51.460Z,7708.00
2018-05-15T08:08:51.496Z,7660.00
2018-05-15T08:09:51.535Z,7432.00
2018-05-15T08:10:51.575Z,7224.00
2018-05-15T08:11:51.615Z,7320.00
2018-05-15T08:12:51.655Z,7692.00
2018-05-15T08:13:51.694Z,8404.00
2018-05-15T08:14:51.732Z,9004.00
2018-05-15T08:15:51.775Z,8960.00
2018-05-15T08:16:51.809Z,8724.00
2018-05-15T08:17:51.848Z,8600.00
2018-05-15T08:18:51.892Z,8928.00
2018-05-15T08:19:51.929Z,9136.00
2018-05-15T08:20:51.966Z,9368.00
2018-05-15T08:21:52.006Z,9904.00
2018-05-15T08:22:52.049Z,10296.00
2018-05-15T08:23:52.083Z,10728.00
2018-05-15T08:24:52.121Z,11140.00
2018-05-15T08:25:52.161Z,11388.00
2018-05-15T08:26:52.200Z,11584.00
2018-05-15T08:27:52.240Z,11764.00
2018-05-15T08:28:52.277Z,11616.00
2018-05-15T08:29:52.320Z,11348.00
2018-05-15T08:30:52.439Z,11084.00
2018-05-15T08:31:52.396Z,10740.00
2018-05-15T08:32:52.436Z,10460.00
2018-05-15T08:33:52.481Z,10088.00
2018-05-15T08:34:52.513Z,9760.00
2018-05-15T08:35:52.554Z,9564.00
2018-05-15T08:36:52.593Z,9548.00
2018-05-15T08:37:52.715Z,9732.00
2018-05-15T08:38:52.677Z,10140.00
2018-05-15T08:39:52.716Z,10500.00
2018-05-15T08:40:52.804Z,10328.00
2018-05-15T08:41:52.795Z,10040.00
2018-05-15T08:42:52.832Z,10040.00
2018-05-15T08:43:52.872Z,10188.00
2018-05-15T08:44:52.909Z,10212.00
2018-05-15T08:45:52.950Z,10120.00
2018-05-15T08:46:52.991Z,10088.00
2018-05-15T08:47:53.082Z,10120.00
2018-05-15T08:48:53.068Z,10052.00
2018-05-15T08:49:53.109Z,10024.00
2018-05-15T08:50:53.148Z,9972.00
2018-05-15T08:51:53.191Z,9804.00
2018-05-15T08:52:53.227Z,9684.00
2018-05-15T08:53:53.266Z,9592.00
2018-05-15T08:54:53.315Z,9232.00
2018-05-15T08:55:53.346Z,9452.00
2018-05-15T08:56:53.384Z,9492.00
2018-05-15T08:57:53.426Z,9628.00
2018-05-15T08:58:53.476Z,9736.00
2018-05-15T08:59:53.505Z,9904.00
2018-05-15T09:00:53.546Z,10008.00
2018-05-15T09:01:53.583Z,10032.00
2018-05-15T09:02:53.624Z,10156.00
2018-05-15T09:03:53.664Z,10280.00
2018-05-15T09:04:53.704Z,10392.00
2018-05-15T09:05:53.748Z,10344.00
2018-05-15T09:06:53.787Z,10260.00
2018-05-15T09:07:53.824Z,10164.00
2018-05-15T09:08:53.861Z,10044.00
2018-05-15T09:09:53.910Z,9952.00
2018-05-15T09:10:53.943Z,9944.00
2018-05-15T09:11:53.983Z,9968.00
2018-05-15T09:12:54.024Z,10016.00
2018-05-15T09:13:54.065Z,10116.00
2018-05-15T09:14:54.102Z,10260.00
2018-05-15T09:15:54.242Z,10564.00
2018-05-15T09:16:54.192Z,10828.00
2018-05-15T09:17:54.224Z,11104.00
2018-05-15T09:18:54.263Z,11436.00
2018-05-15T09:19:54.303Z,11672.00
2018-05-15T09:20:54.348Z,11716.00
2018-05-15T09:21:54.384Z,12424.00
2018-05-15T09:22:54.425Z,13288.00
2018-05-15T09:23:54.467Z,14172.00
2018-05-15T09:24:54.505Z,14620.00
2018-05-15T09:25:54.548Z,15444.00
2018-05-15T09:26:54.595Z,15720.00
2018-05-15T09:27:54.627Z,15648.00
2018-05-15T09:28:54.674Z,15420.00
2018-05-15T09:29:54.704Z,15944.00
2018-05-15T09:30:54.747Z,16608.00
2018-05-15T09:31:54.791Z,17888.00
2018-05-15T09:32:54.831Z,19008.00
2018-05-15T09:33:54.867Z,19200.00
2018-05-15T09:34:54.908Z,18688.00
2018-05-15T09:35:54.948Z,18368.00
2018-05-15T09:36:54.989Z,18624.00
2018-05-15T09:37:55.028Z,19264.00
2018-05-15T09:38:55.079Z,19488.00
2018-05-15T09:39:55.112Z,19456.00
2018-05-15T09:40:55.158Z,19264.00
2018-05-15T09:41:55.194Z,19040.00
2018-05-15T09:42:55.240Z,18240.00
2018-05-15T09:43:55.278Z,16704.00
2018-05-15T09:44:55.319Z,15204.00
2018-05-15T09:45:55.360Z,13916.00
2018-05-15T09:46:55.437Z,12688.00
2018-05-15T09:47:55.442Z,11460.00
2018-05-15T09:48:55.502Z,10708.00
2018-05-15T09:49:55.525Z,10136.00
2018-05-15T09:50:55.568Z,9732.00
2018-05-15T09:51:55.611Z,10044.00
2018-05-15T09:52:55.650Z,10632.00
2018-05-15T09:53:55.693Z,11592.00
2018-05-15T09:54:55.736Z,12556.00
2018-05-15T09:55:55.777Z,12428.00
2018-05-15T09:56:55.816Z,11164.00
2018-05-15T09:57:55.858Z,9644.00
2018-05-15T09:58:55.901Z,8788.00
2018-05-15T09:59:55.944Z,8428.00
2018-05-15T10:00:55.993Z,8152.00
2018-05-15T10:01:56.034Z,7788.00
2018-05-15T10:02:56.069Z,7392.00
2018-05-15T10:03:56.111Z,7320.00
2018-05-15T10:04:56.157Z,7684.00
2018-05-15T10:05:56.200Z,8504.00
2018-05-15T10:06:56.239Z,9680.00
2018-05-15T10:07:56.370Z,10720.00
2018-05-15T10:08:56.316Z,11200.00
2018-05-15T10:09:56.459Z,11568.00
2018-05-15T10:10:56.399Z,12132.00
2018-05-15T10:11:56.440Z,12488.00
2018-05-15T10:12:56.483Z,12624.00
2018-05-15T10:13:56.523Z,12936.00
2018-05-15T10:14:56.565Z,13296.00
2018-05-15T10:15:56.605Z,13820.00
2018-05-15T10:16:56.650Z,13332.00
2018-05-15T10:17:56.689Z,13032.00
2018-05-15T10:18:56.732Z,12992.00
2018-05-15T10:19:56.783Z,13332.00
2018-05-15T10:20:56.815Z,14468.00
2018-05-15T10:21:56.855Z,15936.00
2018-05-15T10:22:56.897Z,17408.00
2018-05-15T10:23:56.938Z,18720.00
2018-05-15T10:24:56.980Z,18528.00
2018-05-15T10:25:57.022Z,16544.00
2018-05-15T10:26:57.063Z,14120.00
2018-05-15T10:27:57.105Z,12464.00
2018-05-15T10:28:57.157Z,11540.00
2018-05-15T10:29:57.233Z,11652.00
2018-05-15T10:30:57.231Z,12280.00
2018-05-15T10:31:57.272Z,13628.00
2018-05-15T10:32:57.315Z,14488.00
2018-05-15T10:33:57.361Z,14928.00
2018-05-15T10:34:57.399Z,15080.00
2018-05-15T10:35:57.440Z,14936.00
2018-05-15T10:36:57.483Z,14484.00
2018-05-15T10:37:57.526Z,13876.00
2018-05-15T10:38:57.569Z,13640.00
2018-05-15T10:39:57.621Z,13992.00
2018-05-15T10:40:57.650Z,14960.00
2018-05-15T10:41:57.696Z,16192.00
2018-05-15T10:42:57.735Z,16800.00
2018-05-15T10:43:57.822Z,16384.00
2018-05-15T10:44:57.818Z,15052.00
2018-05-15T10:45:57.862Z,14580.00
2018-05-15T10:46:57.903Z,15136.00
2018-05-15T10:47:57.947Z,16384.00
2018-05-15T10:48:57.992Z,17376.00
2018-05-15T10:49:58.031Z,18400.00
2018-05-15T10:50:58.075Z,19008.00
2018-05-15T10:51:58.119Z,19328.00
2018-05-15T10:52:58.156Z,19264.00
2018-05-15T10:53:58.199Z,18944.00
2018-05-15T10:54:58.241Z,18656.00
2018-05-15T10:55:58.285Z,18368.00
2018-05-15T10:56:58.324Z,18016.00
2018-05-15T10:57:58.368Z,17760.00
2018-05-15T10:58:58.409Z,17792.00
2018-05-15T10:59:58.455Z,18272.00
2018-05-15T11:00:58.493Z,19168.00
2018-05-15T11:01:58.536Z,19680.00
2018-05-15T11:02:58.591Z,19488.00
2018-05-15T11:03:58.621Z,19360.00
2018-05-15T11:04:58.674Z,19520.00
2018-05-15T11:05:58.705Z,20096.00
2018-05-15T11:06:58.746Z,20832.00
2018-05-15T11:07:58.790Z,21792.00
2018-05-15T11:08:58.831Z,22688.00
2018-05-15T11:09:58.886Z,23328.00
2018-05-15T11:10:58.916Z,23968.00
2018-05-15T11:11:58.961Z,24352.00
2018-05-15T11:12:59.001Z,24224.00
2018-05-15T11:13:59.043Z,23648.00
2018-05-15T11:14:59.089Z,23264.00
2018-05-15T11:15:59.131Z,22272.00
2018-05-15T11:16:59.173Z,21216.00
2018-05-15T11:17:59.214Z,19808.00
2018-05-15T11:18:59.257Z,17760.00
2018-05-15T11:19:59.303Z,15808.00
2018-05-15T11:20:59.344Z,13916.00
2018-05-15T11:21:59.389Z,12296.00
2018-05-15T11:22:59.430Z,11500.00
2018-05-15T11:23:59.473Z,11132.00
2018-05-15T11:24:59.516Z,10944.00
2018-05-15T11:25:59.561Z,10940.00
2018-05-15T11:26:59.602Z,11424.00
2018-05-15T11:27:59.645Z,11832.00
2018-05-15T11:28:59.687Z,11768.00
2018-05-15T11:29:59.731Z,11160.00
2018-05-15T11:30:59.788Z,10692.00
2018-05-15T11:31:59.821Z,10652.00
2018-05-15T11:32:59.859Z,11044.00
2018-05-15T11:33:59.904Z,11892.00
2018-05-15T11:34:59.949Z,13240.00
2018-05-15T11:36:00.096Z,14760.00
2018-05-15T11:37:00.030Z,16256.00
2018-05-15T11:38:00.072Z,17472.00
2018-05-15T11:39:00.113Z,18752.00
2018-05-15T11:40:00.166Z,19616.00
2018-05-15T11:41:00.198Z,19968.00
2018-05-15T11:42:00.241Z,19968.00
2018-05-15T11:43:00.287Z,19872.00
2018-05-15T11:44:00.328Z,19552.00
2018-05-15T11:45:00.368Z,19680.00
2018-05-15T11:46:00.413Z,20544.00
2018-05-15T11:47:00.451Z,20832.00
2018-05-15T11:48:00.641Z,20256.00
2018-05-15T11:49:01.185Z,19552.00
2018-05-15T11:50:01.185Z,18912.00
2018-05-15T11:51:01.064Z,18240.00
2018-05-15T11:52:01.531Z,17792.00
2018-05-15T11:53:01.703Z,17792.00
2018-05-15T11:54:00.851Z,18176.00
2018-05-15T11:55:00.808Z,18624.00
2018-05-15T11:56:00.848Z,19072.00
2018-05-15T11:57:00.874Z,19360.00
2018-05-15T11:58:00.940Z,19584.00
2018-05-15T11:59:00.962Z,19648.00
2018-05-15T12:00:01.229Z,19680.00
2018-05-15T12:01:01.045Z,19968.00
2018-05-15T12:02:01.090Z,20160.00
2018-05-15T12:03:01.132Z,20224.00
2018-05-15T12:04:01.247Z,19776.00
2018-05-15T12:05:01.217Z,19616.00
2018-05-15T12:06:01.274Z,19744.00
2018-05-15T12:07:01.303Z,19520.00
2018-05-15T12:08:01.448Z,18976.00
2018-05-15T12:09:01.485Z,18496.00
2018-05-15T12:10:01.434Z,18144.00
2018-05-15T12:11:01.487Z,17504.00
2018-05-15T12:12:01.522Z,17088.00
2018-05-15T12:13:01.567Z,16896.00
2018-05-15T12:14:01.606Z,16480.00
2018-05-15T12:15:01.748Z,15608.00
2018-05-15T12:16:01.730Z,14880.00
2018-05-15T12:17:01.737Z,14232.00
2018-05-15T12:18:01.781Z,13648.00